sensor_id;sensor_type;location;lat;lon;timestamp;pressure;altitude;pressure_sealevel;temperature;humidity
13124;BME280;6627;50.920;12.050;2023-10-31T00:00:06;97308.28;;;23.21;50.56
13124;BME280;6627;50.920;12.050;2023-10-31T00:02:35;97382.28;;;24.24;49.02
13124;BME280;6627;50.920;12.050;2023-10-31T00:05:03;97302.28;;;23.26;50.43
13124;BME280;6627;50.920;12.050;2023-10-31T00:07:31;97355.63;;;23.70;50.12
13124;BME280;6627;50.920;12.050;2023-10-31T00:09:59;97368.41;;;23.84;49.82
13124;BME280;6627;50.920;12.050;2023-10-31T00:12:28;97344.31;;;23.84;49.49
13124;BME280;6627;50.920;12.050;2023-10-31T00:14:55;97372.63;;;24.12;49.30
13124;BME280;6627;50.920;12.050;2023-10-31T00:17:23;97379.50;;;24.04;49.30
13124;BME280;6627;50.920;12.050;2023-10-31T00:19:50;97312.69;;;22.91;50.89
13124;BME280;6627;50.920;12.050;2023-10-31T00:22:18;97356.91;;;23.15;51.34
13124;BME280;6627;50.920;12.050;2023-10-31T00:24:46;97392.69;;;23.96;50.06
13124;BME280;6627;50.920;12.050;2023-10-31T00:27:13;97333.63;;;23.16;50.95
13124;BME280;6627;50.920;12.050;2023-10-31T00:29:42;97358.63;;;23.79;50.05
13124;BME280;6627;50.920;12.050;2023-10-31T00:32:09;97339.50;;;23.88;49.69
13124;BME280;6627;50.920;12.050;2023-10-31T00:34:37;97362.34;;;24.32;48.65
13124;BME280;6627;50.920;12.050;2023-10-31T00:37:04;97356.44;;;23.90;49.60
13124;BME280;6627;50.920;12.050;2023-10-31T00:39:32;97375.78;;;23.90;49.92
13124;BME280;6627;50.920;12.050;2023-10-31T00:42:00;97320.66;;;23.60;49.81
13124;BME280;6627;50.920;12.050;2023-10-31T00:44:27;97325.91;;;23.04;51.23
13124;BME280;6627;50.920;12.050;2023-10-31T00:46:57;97299.38;;;22.83;51.29
13124;BME280;6627;50.920;12.050;2023-10-31T00:49:24;97346.38;;;22.49;52.92
13124;BME280;6627;50.920;12.050;2023-10-31T00:51:51;97393.44;;;23.26;51.93
13124;BME280;6627;50.920;12.050;2023-10-31T00:54:19;97377.81;;;24.10;49.78
13124;BME280;6627;50.920;12.050;2023-10-31T00:56:46;97324.09;;;23.64;50.14
13124;BME280;6627;50.920;12.050;2023-10-31T00:59:13;97284.50;;;22.50;51.86
13124;BME280;6627;50.920;12.050;2023-10-31T01:01:42;97330.00;;;22.34;53.65
13124;BME280;6627;50.920;12.050;2023-10-31T01:04:11;97332.88;;;22.58;52.48
13124;BME280;6627;50.920;12.050;2023-10-31T01:06:41;97341.34;;;23.01;51.94
13124;BME280;6627;50.920;12.050;2023-10-31T01:09:09;97302.53;;;22.58;52.74
13124;BME280;6627;50.920;12.050;2023-10-31T01:11:37;97342.25;;;22.95;52.38
13124;BME280;6627;50.920;12.050;2023-10-31T01:14:05;97358.25;;;23.77;50.63
13124;BME280;6627;50.920;12.050;2023-10-31T01:16:32;97283.53;;;22.90;51.60
13124;BME280;6627;50.920;12.050;2023-10-31T01:18:59;97316.75;;;23.34;50.94
13124;BME280;6627;50.920;12.050;2023-10-31T01:21:28;97324.38;;;23.50;50.37
13124;BME280;6627;50.920;12.050;2023-10-31T01:23:56;97300.25;;;23.30;50.69
13124;BME280;6627;50.920;12.050;2023-10-31T01:26:23;97309.84;;;23.22;50.69
13124;BME280;6627;50.920;12.050;2023-10-31T01:28:52;97346.38;;;23.57;50.39
13124;BME280;6627;50.920;12.050;2023-10-31T01:31:19;97339.63;;;23.34;50.58
13124;BME280;6627;50.920;12.050;2023-10-31T01:33:47;97284.66;;;22.66;51.79
13124;BME280;6627;50.920;12.050;2023-10-31T01:36:14;97297.78;;;22.58;52.09
13124;BME280;6627;50.920;12.050;2023-10-31T01:38:45;97384.94;;;23.13;52.24
13124;BME280;6627;50.920;12.050;2023-10-31T01:41:13;97313.81;;;22.98;51.67
13124;BME280;6627;50.920;12.050;2023-10-31T01:43:40;97319.50;;;23.10;51.48
13124;BME280;6627;50.920;12.050;2023-10-31T01:46:08;97322.69;;;23.32;50.71
13124;BME280;6627;50.920;12.050;2023-10-31T01:48:35;97309.34;;;23.04;51.39
13124;BME280;6627;50.920;12.050;2023-10-31T01:51:04;97322.88;;;23.45;50.66
13124;BME280;6627;50.920;12.050;2023-10-31T01:53:33;97303.09;;;23.00;51.33
13124;BME280;6627;50.920;12.050;2023-10-31T01:56:04;97308.34;;;22.63;52.38
13124;BME280;6627;50.920;12.050;2023-10-31T01:58:35;97337.00;;;23.51;50.80
13124;BME280;6627;50.920;12.050;2023-10-31T02:01:05;97304.00;;;23.40;50.58
13124;BME280;6627;50.920;12.050;2023-10-31T02:03:32;97336.38;;;23.63;50.16
13124;BME280;6627;50.920;12.050;2023-10-31T02:06:00;97270.59;;;23.11;50.31
13124;BME280;6627;50.920;12.050;2023-10-31T02:08:27;97301.66;;;22.88;51.53
13124;BME280;6627;50.920;12.050;2023-10-31T02:10:55;97383.47;;;24.03;49.76
13124;BME280;6627;50.920;12.050;2023-10-31T02:13:24;97260.78;;;23.06;50.48
13124;BME280;6627;50.920;12.050;2023-10-31T02:15:52;97270.34;;;23.25;49.92
13124;BME280;6627;50.920;12.050;2023-10-31T02:18:20;97288.66;;;23.39;50.14
13124;BME280;6627;50.920;12.050;2023-10-31T02:20:48;97327.56;;;23.48;50.09
13124;BME280;6627;50.920;12.050;2023-10-31T02:23:17;97317.88;;;23.13;51.02
13124;BME280;6627;50.920;12.050;2023-10-31T02:25:44;97372.00;;;24.24;48.93
13124;BME280;6627;50.920;12.050;2023-10-31T02:28:12;97305.63;;;23.14;50.98
13124;BME280;6627;50.920;12.050;2023-10-31T02:30:40;97319.75;;;23.66;49.70
13124;BME280;6627;50.920;12.050;2023-10-31T02:33:08;97288.78;;;22.81;51.19
13124;BME280;6627;50.920;12.050;2023-10-31T02:35:35;97312.13;;;23.04;51.17
13124;BME280;6627;50.920;12.050;2023-10-31T02:38:02;97328.94;;;23.13;51.30
13124;BME280;6627;50.920;12.050;2023-10-31T02:40:31;97298.19;;;23.11;51.20
13124;BME280;6627;50.920;12.050;2023-10-31T02:42:59;97297.72;;;23.16;51.11
13124;BME280;6627;50.920;12.050;2023-10-31T02:45:27;97354.66;;;23.80;50.33
13124;BME280;6627;50.920;12.050;2023-10-31T02:47:55;97271.69;;;23.37;49.89
13124;BME280;6627;50.920;12.050;2023-10-31T02:50:22;97294.56;;;22.90;51.47
13124;BME280;6627;50.920;12.050;2023-10-31T02:52:50;97326.03;;;22.97;51.58
13124;BME280;6627;50.920;12.050;2023-10-31T02:55:17;97300.34;;;23.23;50.36
13124;BME280;6627;50.920;12.050;2023-10-31T02:57:46;97335.31;;;23.57;50.26
13124;BME280;6627;50.920;12.050;2023-10-31T03:00:15;97364.91;;;24.23;48.95
13124;BME280;6627;50.920;12.050;2023-10-31T03:02:43;97229.06;;;22.40;51.04
13124;BME280;6627;50.920;12.050;2023-10-31T03:05:10;97296.09;;;23.42;49.90
13124;BME280;6627;50.920;12.050;2023-10-31T03:07:38;97272.44;;;22.94;50.64
13124;BME280;6627;50.920;12.050;2023-10-31T03:10:07;97304.84;;;22.86;51.13
13124;BME280;6627;50.920;12.050;2023-10-31T03:12:34;97330.38;;;23.21;50.50
13124;BME280;6627;50.920;12.050;2023-10-31T03:15:04;97248.44;;;22.03;52.08
13124;BME280;6627;50.920;12.050;2023-10-31T03:17:48;97359.44;;;22.75;52.59
13124;BME280;6627;50.920;12.050;2023-10-31T03:20:16;97319.41;;;22.90;51.58
13124;BME280;6627;50.920;12.050;2023-10-31T03:22:43;97333.00;;;23.05;51.58
13124;BME280;6627;50.920;12.050;2023-10-31T03:25:11;97322.25;;;22.83;52.00
13124;BME280;6627;50.920;12.050;2023-10-31T03:27:38;97315.47;;;22.61;52.22
13124;BME280;6627;50.920;12.050;2023-10-31T03:30:09;97342.50;;;23.04;51.75
13124;BME280;6627;50.920;12.050;2023-10-31T03:32:36;97331.91;;;22.99;51.57
13124;BME280;6627;50.920;12.050;2023-10-31T03:35:05;97366.56;;;23.77;50.08
13124;BME280;6627;50.920;12.050;2023-10-31T03:37:32;97278.72;;;22.95;50.78
13124;BME280;6627;50.920;12.050;2023-10-31T03:40:00;97363.63;;;23.64;50.38
13124;BME280;6627;50.920;12.050;2023-10-31T03:42:28;97282.69;;;23.40;49.49
13124;BME280;6627;50.920;12.050;2023-10-31T03:44:55;97236.47;;;22.71;50.15
13124;BME280;6627;50.920;12.050;2023-10-31T03:47:24;97325.56;;;23.72;49.09
13124;BME280;6627;50.920;12.050;2023-10-31T03:49:52;97352.84;;;24.33;48.15
13124;BME280;6627;50.920;12.050;2023-10-31T03:52:20;97316.38;;;23.55;49.30
13124;BME280;6627;50.920;12.050;2023-10-31T03:54:47;97338.84;;;23.81;49.12
13124;BME280;6627;50.920;12.050;2023-10-31T03:57:15;97300.53;;;23.12;50.22
13124;BME280;6627;50.920;12.050;2023-10-31T03:59:42;97264.66;;;22.85;50.02
13124;BME280;6627;50.920;12.050;2023-10-31T04:02:09;97339.88;;;23.67;49.48
13124;BME280;6627;50.920;12.050;2023-10-31T04:04:38;97323.69;;;23.89;48.66
13124;BME280;6627;50.920;12.050;2023-10-31T04:07:05;97300.34;;;23.23;49.91
13124;BME280;6627;50.920;12.050;2023-10-31T04:09:33;97272.06;;;22.65;50.80
13124;BME280;6627;50.920;12.050;2023-10-31T04:12:00;97296.63;;;23.10;49.83
13124;BME280;6627;50.920;12.050;2023-10-31T04:14:28;97270.63;;;23.31;48.99
13124;BME280;6627;50.920;12.050;2023-10-31T04:16:55;97250.47;;;22.83;49.68
13124;BME280;6627;50.920;12.050;2023-10-31T04:19:23;97270.72;;;22.50;50.73
13124;BME280;6627;50.920;12.050;2023-10-31T04:21:54;97277.03;;;22.74;50.10
13124;BME280;6627;50.920;12.050;2023-10-31T04:24:21;97263.28;;;22.16;51.42
13124;BME280;6627;50.920;12.050;2023-10-31T04:26:49;97276.41;;;22.35;50.89
13124;BME280;6627;50.920;12.050;2023-10-31T04:29:16;97237.50;;;21.96;51.12
13124;BME280;6627;50.920;12.050;2023-10-31T04:31:43;97302.13;;;21.91;52.13
13124;BME280;6627;50.920;12.050;2023-10-31T04:34:11;97348.78;;;22.47;51.65
13124;BME280;6627;50.920;12.050;2023-10-31T04:36:39;97288.41;;;21.87;52.08
13124;BME280;6627;50.920;12.050;2023-10-31T04:39:08;97285.06;;;21.69;52.27
13124;BME280;6627;50.920;12.050;2023-10-31T04:41:36;97340.97;;;22.41;51.51
13124;BME280;6627;50.920;12.050;2023-10-31T04:44:04;97368.03;;;22.81;50.87
13124;BME280;6627;50.920;12.050;2023-10-31T04:46:32;97288.63;;;22.34;50.94
13124;BME280;6627;50.920;12.050;2023-10-31T04:48:59;97316.09;;;22.14;51.68
13124;BME280;6627;50.920;12.050;2023-10-31T04:51:27;97292.88;;;22.42;50.65
13124;BME280;6627;50.920;12.050;2023-10-31T04:53:55;97297.56;;;22.46;50.49
13124;BME280;6627;50.920;12.050;2023-10-31T04:56:24;97353.28;;;22.64;50.64
13124;BME280;6627;50.920;12.050;2023-10-31T04:58:51;97291.09;;;21.91;51.58
13124;BME280;6627;50.920;12.050;2023-10-31T05:01:19;97331.13;;;22.40;51.14
13124;BME280;6627;50.920;12.050;2023-10-31T05:03:46;97253.94;;;21.34;52.00
13124;BME280;6627;50.920;12.050;2023-10-31T05:06:19;97364.94;;;22.14;52.16
13124;BME280;6627;50.920;12.050;2023-10-31T05:08:46;97344.66;;;21.94;52.44
13124;BME280;6627;50.920;12.050;2023-10-31T05:11:16;97327.25;;;22.00;51.87
13124;BME280;6627;50.920;12.050;2023-10-31T05:13:46;97370.84;;;22.47;51.40
13124;BME280;6627;50.920;12.050;2023-10-31T05:16:13;97288.19;;;21.71;51.67
13124;BME280;6627;50.920;12.050;2023-10-31T05:18:41;97308.88;;;21.52;52.47
13124;BME280;6627;50.920;12.050;2023-10-31T05:21:08;97308.38;;;21.61;51.81
13124;BME280;6627;50.920;12.050;2023-10-31T05:23:36;97281.22;;;21.18;52.61
13124;BME280;6627;50.920;12.050;2023-10-31T05:26:05;97315.00;;;21.67;51.98
13124;BME280;6627;50.920;12.050;2023-10-31T05:28:33;97311.91;;;21.65;51.65
13124;BME280;6627;50.920;12.050;2023-10-31T05:31:01;97321.25;;;21.71;51.58
13124;BME280;6627;50.920;12.050;2023-10-31T05:33:29;97277.25;;;21.64;50.67
13124;BME280;6627;50.920;12.050;2023-10-31T05:35:56;97281.19;;;21.63;50.66
13124;BME280;6627;50.920;12.050;2023-10-31T05:38:24;97294.31;;;21.86;50.47
13124;BME280;6627;50.920;12.050;2023-10-31T05:40:51;97302.50;;;21.59;50.64
13124;BME280;6627;50.920;12.050;2023-10-31T05:43:18;97268.22;;;21.19;50.90
13124;BME280;6627;50.920;12.050;2023-10-31T05:45:46;97297.16;;;21.41;50.65
13124;BME280;6627;50.920;12.050;2023-10-31T05:48:14;97309.84;;;21.31;50.76
13124;BME280;6627;50.920;12.050;2023-10-31T05:50:42;97260.56;;;20.96;50.99
13124;BME280;6627;50.920;12.050;2023-10-31T05:53:09;97254.09;;;20.68;50.89
13124;BME280;6627;50.920;12.050;2023-10-31T05:55:39;97245.00;;;20.75;50.69
13124;BME280;6627;50.920;12.050;2023-10-31T05:58:06;97273.34;;;20.68;50.96
13124;BME280;6627;50.920;12.050;2023-10-31T06:00:34;97299.13;;;20.92;50.64
13124;BME280;6627;50.920;12.050;2023-10-31T06:03:01;97273.41;;;20.54;50.06
13124;BME280;6627;50.920;12.050;2023-10-31T06:05:31;97231.75;;;20.59;49.14
13124;BME280;6627;50.920;12.050;2023-10-31T06:07:58;97244.00;;;20.44;49.60
13124;BME280;6627;50.920;12.050;2023-10-31T06:10:25;97256.03;;;20.71;48.80
13124;BME280;6627;50.920;12.050;2023-10-31T06:12:53;97236.09;;;20.56;48.83
13124;BME280;6627;50.920;12.050;2023-10-31T06:15:21;97274.69;;;20.98;48.74
13124;BME280;6627;50.920;12.050;2023-10-31T06:17:48;97216.66;;;20.81;48.12
13124;BME280;6627;50.920;12.050;2023-10-31T06:20:15;97254.94;;;21.10;47.54
13124;BME280;6627;50.920;12.050;2023-10-31T06:22:44;97312.84;;;21.48;47.15
13124;BME280;6627;50.920;12.050;2023-10-31T06:25:12;97314.00;;;21.88;46.72
13124;BME280;6627;50.920;12.050;2023-10-31T06:27:39;97182.25;;;20.59;47.51
13124;BME280;6627;50.920;12.050;2023-10-31T06:30:08;97301.38;;;21.53;47.21
13124;BME280;6627;50.920;12.050;2023-10-31T06:32:36;97300.69;;;21.41;47.18
13124;BME280;6627;50.920;12.050;2023-10-31T06:35:07;97227.63;;;20.26;48.48
13124;BME280;6627;50.920;12.050;2023-10-31T06:37:34;97216.97;;;20.31;47.68
13124;BME280;6627;50.920;12.050;2023-10-31T06:40:06;97224.44;;;20.27;47.69
13124;BME280;6627;50.920;12.050;2023-10-31T06:42:33;97266.09;;;20.88;47.58
13124;BME280;6627;50.920;12.050;2023-10-31T06:45:00;97267.25;;;20.95;47.05
13124;BME280;6627;50.920;12.050;2023-10-31T06:47:28;97237.50;;;20.75;47.00
13124;BME280;6627;50.920;12.050;2023-10-31T06:49:56;97302.00;;;21.26;46.85
13124;BME280;6627;50.920;12.050;2023-10-31T06:52:24;97256.03;;;20.71;47.15
13124;BME280;6627;50.920;12.050;2023-10-31T06:54:51;97298.69;;;21.46;45.88
13124;BME280;6627;50.920;12.050;2023-10-31T06:57:21;97244.13;;;20.85;46.48
13124;BME280;6627;50.920;12.050;2023-10-31T06:59:48;97240.88;;;20.41;46.91
13124;BME280;6627;50.920;12.050;2023-10-31T07:02:16;97239.69;;;20.50;47.01
13124;BME280;6627;50.920;12.050;2023-10-31T07:04:44;97269.22;;;20.94;46.27
13124;BME280;6627;50.920;12.050;2023-10-31T07:07:12;97282.41;;;21.17;46.17
13124;BME280;6627;50.920;12.050;2023-10-31T07:09:39;97290.63;;;20.72;47.17
13124;BME280;6627;50.920;12.050;2023-10-31T07:12:07;97280.81;;;21.16;46.20
13124;BME280;6627;50.920;12.050;2023-10-31T07:14:36;97324.00;;;21.30;46.36
13124;BME280;6627;50.920;12.050;2023-10-31T07:17:04;97283.22;;;20.58;47.04
13124;BME280;6627;50.920;12.050;2023-10-31T07:19:31;97357.72;;;21.45;46.05
13124;BME280;6627;50.920;12.050;2023-10-31T07:21:59;97356.03;;;21.06;47.12
13124;BME280;6627;50.920;12.050;2023-10-31T07:24:26;97331.09;;;21.27;46.32
13124;BME280;6627;50.920;12.050;2023-10-31T07:26:54;97361.03;;;21.70;45.84
13124;BME280;6627;50.920;12.050;2023-10-31T07:29:21;97331.09;;;21.27;46.24
13124;BME280;6627;50.920;12.050;2023-10-31T07:31:50;97401.53;;;21.73;46.36
13124;BME280;6627;50.920;12.050;2023-10-31T07:34:17;97340.13;;;21.28;46.32
13124;BME280;6627;50.920;12.050;2023-10-31T07:36:45;97354.66;;;21.35;46.29
13124;BME280;6627;50.920;12.050;2023-10-31T07:39:12;97358.72;;;21.16;46.81
13124;BME280;6627;50.920;12.050;2023-10-31T07:41:40;97387.59;;;21.46;46.72
13124;BME280;6627;50.920;12.050;2023-10-31T07:44:07;97411.22;;;21.47;47.24
13124;BME280;6627;50.920;12.050;2023-10-31T07:46:35;97350.81;;;21.22;46.80
13124;BME280;6627;50.920;12.050;2023-10-31T07:49:04;97321.91;;;20.92;46.93
13124;BME280;6627;50.920;12.050;2023-10-31T07:51:31;97418.81;;;21.77;46.68
13124;BME280;6627;50.920;12.050;2023-10-31T07:53:59;97327.75;;;21.02;46.60
13124;BME280;6627;50.920;12.050;2023-10-31T07:56:27;97323.47;;;20.94;46.54
13124;BME280;6627;50.920;12.050;2023-10-31T07:58:54;97390.72;;;21.52;46.54
13124;BME280;6627;50.920;12.050;2023-10-31T08:01:22;97399.34;;;21.54;46.69
13124;BME280;6627;50.920;12.050;2023-10-31T08:03:50;97295.25;;;20.82;46.50
13124;BME280;6627;50.920;12.050;2023-10-31T08:06:19;97409.34;;;21.33;47.19
13124;BME280;6627;50.920;12.050;2023-10-31T08:08:47;97399.09;;;21.37;47.05
13124;BME280;6627;50.920;12.050;2023-10-31T08:11:15;97432.41;;;21.99;46.22
13124;BME280;6627;50.920;12.050;2023-10-31T08:13:42;97407.84;;;21.22;47.24
13124;BME280;6627;50.920;12.050;2023-10-31T08:16:10;97375.63;;;21.15;47.04
13124;BME280;6627;50.920;12.050;2023-10-31T08:18:37;97358.03;;;21.02;46.62
13124;BME280;6627;50.920;12.050;2023-10-31T08:21:05;97467.72;;;22.18;46.00
13124;BME280;6627;50.920;12.050;2023-10-31T08:23:33;97393.03;;;21.57;46.16
13124;BME280;6627;50.920;12.050;2023-10-31T08:26:02;97455.31;;;22.37;44.92
13124;BME280;6627;50.920;12.050;2023-10-31T08:28:30;97414.47;;;22.25;44.51
13124;BME280;6627;50.920;12.050;2023-10-31T08:30:57;97414.06;;;21.81;45.39
13124;BME280;6627;50.920;12.050;2023-10-31T08:33:25;97375.00;;;21.49;45.83
13124;BME280;6627;50.920;12.050;2023-10-31T08:35:53;97393.50;;;21.48;46.22
13124;BME280;6627;50.920;12.050;2023-10-31T08:38:20;97390.72;;;20.92;47.10
13124;BME280;6627;50.920;12.050;2023-10-31T08:40:49;97355.97;;;20.47;47.63
13124;BME280;6627;50.920;12.050;2023-10-31T08:43:16;97452.66;;;21.81;46.40
13124;BME280;6627;50.920;12.050;2023-10-31T08:45:44;97386.06;;;21.41;45.99
13124;BME280;6627;50.920;12.050;2023-10-31T08:48:11;97389.47;;;21.04;46.41
13124;BME280;6627;50.920;12.050;2023-10-31T08:50:39;97385.59;;;20.95;46.88
13124;BME280;6627;50.920;12.050;2023-10-31T08:53:06;97332.41;;;20.46;46.43
13124;BME280;6627;50.920;12.050;2023-10-31T08:55:34;97451.47;;;21.82;45.90
13124;BME280;6627;50.920;12.050;2023-10-31T08:58:02;97376.19;;;20.88;46.62
13124;BME280;6627;50.920;12.050;2023-10-31T09:00:30;97427.47;;;21.24;46.50
13124;BME280;6627;50.920;12.050;2023-10-31T09:02:57;97465.53;;;21.47;46.85
13124;BME280;6627;50.920;12.050;2023-10-31T09:05:25;97430.53;;;21.92;45.70
13124;BME280;6627;50.920;12.050;2023-10-31T09:07:53;97398.28;;;21.40;45.98
13124;BME280;6627;50.920;12.050;2023-10-31T09:10:20;97416.03;;;21.32;46.26
13124;BME280;6627;50.920;12.050;2023-10-31T09:12:48;97375.28;;;21.06;46.04
13124;BME280;6627;50.920;12.050;2023-10-31T09:15:17;97379.19;;;21.12;46.16
13124;BME280;6627;50.920;12.050;2023-10-31T09:17:45;97404.34;;;21.14;46.30
13124;BME280;6627;50.920;12.050;2023-10-31T09:20:13;97420.19;;;20.96;46.86
13124;BME280;6627;50.920;12.050;2023-10-31T09:22:41;97415.25;;;21.35;45.91
13124;BME280;6627;50.920;12.050;2023-10-31T09:25:08;97457.56;;;21.56;46.12
13124;BME280;6627;50.920;12.050;2023-10-31T09:27:37;97429.97;;;21.63;45.28
13124;BME280;6627;50.920;12.050;2023-10-31T09:30:07;97379.44;;;20.76;45.95
13124;BME280;6627;50.920;12.050;2023-10-31T09:32:36;97403.00;;;20.77;46.18
13124;BME280;6627;50.920;12.050;2023-10-31T09:35:04;97383.69;;;20.84;45.88
13124;BME280;6627;50.920;12.050;2023-10-31T09:37:34;97359.91;;;20.46;46.32
13124;BME280;6627;50.920;12.050;2023-10-31T09:40:01;97436.66;;;21.65;45.03
13124;BME280;6627;50.920;12.050;2023-10-31T09:42:29;97412.78;;;21.48;45.05
13124;BME280;6627;50.920;12.050;2023-10-31T09:44:57;97396.13;;;21.07;45.83
13124;BME280;6627;50.920;12.050;2023-10-31T09:47:24;97354.75;;;21.21;44.50
13124;BME280;6627;50.920;12.050;2023-10-31T09:49:53;97373.44;;;21.48;44.21
13124;BME280;6627;50.920;12.050;2023-10-31T09:52:22;97350.28;;;20.86;45.38
13124;BME280;6627;50.920;12.050;2023-10-31T09:54:52;97354.13;;;20.96;44.96
13124;BME280;6627;50.920;12.050;2023-10-31T09:57:19;97369.50;;;21.49;44.11
13124;BME280;6627;50.920;12.050;2023-10-31T09:59:47;97374.13;;;21.59;44.13
13124;BME280;6627;50.920;12.050;2023-10-31T10:02:14;97443.38;;;22.06;43.27
13124;BME280;6627;50.920;12.050;2023-10-31T10:04:42;97386.75;;;22.35;42.30
13124;BME280;6627;50.920;12.050;2023-10-31T10:07:15;97459.22;;;23.08;41.93
13124;BME280;6627;50.920;12.050;2023-10-31T10:09:43;97330.28;;;22.13;42.52
13124;BME280;6627;50.920;12.050;2023-10-31T10:12:12;97374.97;;;22.62;42.06
13124;BME280;6627;50.920;12.050;2023-10-31T10:14:41;97444.31;;;23.56;41.11
13124;BME280;6627;50.920;12.050;2023-10-31T10:17:17;97224.66;;;22.16;41.79
13124;BME280;6627;50.920;12.050;2023-10-31T10:19:45;97290.38;;;22.52;41.55
13124;BME280;6627;50.920;12.050;2023-10-31T10:22:14;97275.84;;;22.48;41.66
13124;BME280;6627;50.920;12.050;2023-10-31T10:24:42;97354.66;;;23.33;40.78
13124;BME280;6627;50.920;12.050;2023-10-31T10:27:09;97287.50;;;22.86;41.19
13124;BME280;6627;50.920;12.050;2023-10-31T10:29:38;97228.34;;;22.36;41.00
13124;BME280;6627;50.920;12.050;2023-10-31T10:32:07;97240.91;;;22.37;41.41
13124;BME280;6627;50.920;12.050;2023-10-31T10:34:35;97095.97;;;21.17;42.61
13124;BME280;6627;50.920;12.050;2023-10-31T10:37:05;97230.56;;;22.45;41.15
13124;BME280;6627;50.920;12.050;2023-10-31T10:39:36;97246.53;;;22.30;41.56
13124;BME280;6627;50.920;12.050;2023-10-31T10:42:10;97218.03;;;21.79;42.02
13124;BME280;6627;50.920;12.050;2023-10-31T10:44:44;97255.50;;;22.65;40.98
13124;BME280;6627;50.920;12.050;2023-10-31T10:47:14;97308.91;;;22.78;41.64
13124;BME280;6627;50.920;12.050;2023-10-31T10:49:43;97253.78;;;22.48;41.68
13124;BME280;6627;50.920;12.050;2023-10-31T10:52:22;97248.69;;;22.46;41.38
13124;BME280;6627;50.920;12.050;2023-10-31T10:54:54;97236.13;;;22.41;41.12
13124;BME280;6627;50.920;12.050;2023-10-31T10:57:37;97318.59;;;23.17;40.59
13124;BME280;6627;50.920;12.050;2023-10-31T11:00:07;97238.63;;;22.32;41.36
13124;BME280;6627;50.920;12.050;2023-10-31T11:02:40;97263.72;;;22.41;41.29
13124;BME280;6627;50.920;12.050;2023-10-31T11:05:09;97174.91;;;21.28;42.34
13124;BME280;6627;50.920;12.050;2023-10-31T11:07:37;97180.16;;;21.15;42.63
13124;BME280;6627;50.920;12.050;2023-10-31T11:10:08;97202.75;;;21.37;42.51
13124;BME280;6627;50.920;12.050;2023-10-31T11:12:37;97253.19;;;21.68;42.51
13124;BME280;6627;50.920;12.050;2023-10-31T11:15:10;97246.16;;;21.63;42.64
13124;BME280;6627;50.920;12.050;2023-10-31T11:17:42;97258.69;;;21.68;42.84
13124;BME280;6627;50.920;12.050;2023-10-31T11:20:12;97245.00;;;21.61;42.65
13124;BME280;6627;50.920;12.050;2023-10-31T11:22:42;97275.25;;;22.02;42.07
13124;BME280;6627;50.920;12.050;2023-10-31T11:25:14;97238.38;;;21.55;42.42
13124;BME280;6627;50.920;12.050;2023-10-31T11:27:43;97338.81;;;22.83;41.14
13124;BME280;6627;50.920;12.050;2023-10-31T11:30:21;97234.69;;;21.69;41.88
13124;BME280;6627;50.920;12.050;2023-10-31T11:32:51;97292.28;;;21.94;42.43
13124;BME280;6627;50.920;12.050;2023-10-31T11:35:19;97310.75;;;21.97;42.36
13124;BME280;6627;50.920;12.050;2023-10-31T11:37:49;97301.84;;;22.20;41.89
13124;BME280;6627;50.920;12.050;2023-10-31T11:40:21;97270.69;;;21.51;42.97
13124;BME280;6627;50.920;12.050;2023-10-31T11:42:50;97355.50;;;22.46;41.66
13124;BME280;6627;50.920;12.050;2023-10-31T11:45:32;97336.44;;;21.86;42.19
13124;BME280;6627;50.920;12.050;2023-10-31T11:48:00;97260.22;;;21.38;43.00
13124;BME280;6627;50.920;12.050;2023-10-31T11:50:28;97322.53;;;21.63;42.99
13124;BME280;6627;50.920;12.050;2023-10-31T11:53:00;97323.63;;;21.69;43.00
13124;BME280;6627;50.920;12.050;2023-10-31T11:55:31;97321.06;;;21.89;42.63
13124;BME280;6627;50.920;12.050;2023-10-31T11:58:15;97359.53;;;22.00;42.75
13124;BME280;6627;50.920;12.050;2023-10-31T12:01:03;97350.63;;;21.88;42.50
13124;BME280;6627;50.920;12.050;2023-10-31T12:03:38;97424.56;;;22.69;41.90
13124;BME280;6627;50.920;12.050;2023-10-31T12:06:07;97389.97;;;22.30;42.06
13124;BME280;6627;50.920;12.050;2023-10-31T12:08:38;97344.84;;;21.76;42.76
13124;BME280;6627;50.920;12.050;2023-10-31T12:11:10;97359.78;;;21.78;43.25
13124;BME280;6627;50.920;12.050;2023-10-31T12:13:41;97408.97;;;22.21;42.83
13124;BME280;6627;50.920;12.050;2023-10-31T12:16:10;97425.34;;;22.35;42.80
13124;BME280;6627;50.920;12.050;2023-10-31T12:18:55;97451.47;;;22.27;43.78
13124;BME280;6627;50.920;12.050;2023-10-31T12:21:37;97454.19;;;22.65;42.96
13124;BME280;6627;50.920;12.050;2023-10-31T12:24:07;97482.91;;;22.37;43.98
13124;BME280;6627;50.920;12.050;2023-10-31T12:26:37;97466.25;;;22.03;44.89
13124;BME280;6627;50.920;12.050;2023-10-31T12:29:13;97426.91;;;21.54;44.85
13124;BME280;6627;50.920;12.050;2023-10-31T12:31:44;97506.69;;;22.20;44.76
13124;BME280;6627;50.920;12.050;2023-10-31T12:34:12;97555.41;;;22.75;44.06
13124;BME280;6627;50.920;12.050;2023-10-31T12:36:40;97461.00;;;22.19;43.98
13124;BME280;6627;50.920;12.050;2023-10-31T12:39:11;97498.06;;;22.18;44.14
13124;BME280;6627;50.920;12.050;2023-10-31T12:41:42;97473.47;;;22.31;43.67
13124;BME280;6627;50.920;12.050;2023-10-31T12:44:13;97392.47;;;21.24;44.93
13124;BME280;6627;50.920;12.050;2023-10-31T12:46:43;97505.00;;;22.33;43.91
13124;BME280;6627;50.920;12.050;2023-10-31T12:49:17;97493.50;;;22.38;43.62
13124;BME280;6627;50.920;12.050;2023-10-31T12:51:57;97425.19;;;21.74;43.84
13124;BME280;6627;50.920;12.050;2023-10-31T12:54:32;97458.38;;;22.05;43.20
13124;BME280;6627;50.920;12.050;2023-10-31T12:57:03;97478.75;;;22.56;42.23
13124;BME280;6627;50.920;12.050;2023-10-31T12:59:31;97403.56;;;22.10;42.40
13124;BME280;6627;50.920;12.050;2023-10-31T13:01:59;97401.81;;;21.86;42.96
13124;BME280;6627;50.920;12.050;2023-10-31T13:04:29;97298.94;;;20.58;44.08
13124;BME280;6627;50.920;12.050;2023-10-31T13:06:58;97445.13;;;22.30;42.09